createdAt,value
2023-03-19T00:00:53.981Z,15.85
2023-03-19T00:03:21.504Z,15.87
2023-03-19T00:05:54.825Z,15.85
2023-03-19T00:08:22.936Z,15.89
2023-03-19T00:10:49.994Z,15.91
2023-03-19T00:13:17.222Z,15.97
2023-03-19T00:15:44.200Z,15.94
2023-03-19T00:18:11.529Z,15.97
2023-03-19T00:20:38.415Z,16.00
2023-03-19T00:23:09.357Z,16.04
2023-03-19T00:25:36.346Z,15.82
2023-03-19T00:28:03.270Z,15.75
2023-03-19T00:30:30.421Z,15.72
2023-03-19T00:32:58.779Z,15.66
2023-03-19T00:35:25.670Z,15.66
2023-03-19T00:37:52.915Z,15.60
2023-03-19T00:40:19.872Z,15.70
2023-03-19T00:42:46.861Z,15.66
2023-03-19T00:45:14.275Z,15.70
2023-03-19T00:47:42.306Z,15.72
2023-03-19T00:50:09.930Z,15.68
2023-03-19T00:52:36.852Z,15.75
2023-03-19T00:55:03.892Z,15.77
2023-03-19T00:57:30.794Z,15.72
2023-03-19T00:59:57.697Z,15.70
2023-03-19T01:02:24.663Z,15.74
2023-03-19T01:04:51.716Z,15.71
2023-03-19T01:07:18.653Z,15.73
2023-03-19T01:09:45.577Z,15.73
2023-03-19T01:12:12.599Z,15.69
2023-03-19T01:14:39.724Z,15.59
2023-03-19T01:17:06.939Z,15.59
2023-03-19T01:19:34.177Z,15.57
2023-03-19T01:22:01.141Z,15.51
2023-03-19T01:24:31.270Z,15.48
2023-03-19T01:26:58.596Z,15.39
2023-03-19T01:29:40.302Z,15.39
2023-03-19T01:32:24.703Z,15.31
2023-03-19T01:35:11.878Z,15.39
2023-03-19T01:37:39.152Z,15.44
2023-03-19T01:40:09.314Z,15.47
2023-03-19T01:42:55.777Z,15.39
2023-03-19T01:45:42.876Z,15.45
2023-03-19T01:48:52.479Z,15.56
2023-03-19T01:51:26.409Z,15.44
2023-03-19T01:54:00.413Z,15.49
2023-03-19T01:56:38.729Z,15.51
2023-03-19T01:59:23.711Z,15.52
2023-03-19T02:02:26.471Z,15.53
2023-03-19T02:05:09.754Z,15.58
2023-03-19T02:07:40.001Z,15.62
2023-03-19T02:10:14.964Z,15.63
2023-03-19T02:12:42.469Z,15.61
2023-03-19T02:15:09.909Z,15.62
2023-03-19T02:17:37.358Z,15.67
2023-03-19T02:20:21.283Z,15.70
2023-03-19T02:23:15.925Z,15.71
2023-03-19T02:25:46.796Z,15.73
2023-03-19T02:28:18.100Z,15.75
2023-03-19T02:30:48.618Z,15.79
2023-03-19T02:33:18.606Z,15.79
2023-03-19T02:35:51.991Z,15.82
2023-03-19T02:38:23.190Z,15.83
2023-03-19T02:40:55.473Z,15.81
2023-03-19T02:43:23.135Z,15.85
2023-03-19T02:45:51.955Z,15.86
2023-03-19T02:48:23.252Z,15.88
2023-03-19T02:50:50.349Z,15.87
2023-03-19T02:53:20.416Z,15.90
2023-03-19T02:55:50.042Z,15.93
2023-03-19T02:58:17.311Z,15.90
2023-03-19T03:00:45.241Z,15.90
2023-03-19T03:03:13.004Z,15.90
2023-03-19T03:05:40.847Z,15.91
2023-03-19T03:08:07.943Z,15.87
2023-03-19T03:10:35.339Z,15.86
2023-03-19T03:13:05.842Z,15.82
2023-03-19T03:15:33.089Z,15.74
2023-03-19T03:18:00.989Z,15.70
2023-03-19T03:20:27.999Z,15.68
2023-03-19T03:22:55.046Z,15.69
2023-03-19T03:25:22.816Z,15.64
2023-03-19T03:27:49.990Z,15.65
2023-03-19T03:30:17.194Z,15.65
2023-03-19T03:32:44.462Z,15.72
2023-03-19T03:35:12.170Z,15.67
2023-03-19T03:37:39.943Z,15.68
2023-03-19T03:40:08.381Z,15.65
2023-03-19T03:42:37.533Z,15.63
2023-03-19T03:45:07.619Z,15.56
2023-03-19T03:47:34.616Z,15.55
2023-03-19T03:50:02.136Z,15.50
2023-03-19T03:52:31.578Z,15.47
2023-03-19T03:54:59.381Z,15.52
2023-03-19T03:57:27.661Z,15.58
2023-03-19T03:59:55.851Z,15.64
2023-03-19T04:02:23.724Z,15.72
2023-03-19T04:04:51.024Z,15.77
2023-03-19T04:07:18.182Z,15.77
2023-03-19T04:09:48.196Z,15.82
2023-03-19T04:12:16.055Z,15.82
2023-03-19T04:14:43.198Z,15.78
2023-03-19T04:17:10.444Z,15.81
2023-03-19T04:19:38.583Z,15.82
2023-03-19T04:22:07.453Z,15.83
2023-03-19T04:24:34.883Z,15.85
2023-03-19T04:27:02.825Z,15.83
2023-03-19T04:29:31.234Z,15.84
2023-03-19T04:31:59.172Z,15.81
2023-03-19T04:34:26.574Z,15.84
2023-03-19T04:36:53.558Z,15.85
2023-03-19T04:39:20.613Z,15.82
2023-03-19T04:41:47.741Z,15.83
2023-03-19T04:44:32.267Z,15.78
2023-03-19T04:47:01.969Z,15.71
2023-03-19T04:49:34.092Z,15.70
2023-03-19T04:52:01.462Z,15.71
2023-03-19T04:54:28.551Z,15.72
2023-03-19T04:56:56.813Z,15.70
2023-03-19T04:59:27.420Z,15.69
2023-03-19T05:01:55.021Z,15.71
2023-03-19T05:04:24.144Z,15.70
2023-03-19T05:06:54.384Z,15.72
2023-03-19T05:09:21.545Z,15.71
2023-03-19T05:11:48.632Z,15.70
2023-03-19T05:14:19.808Z,15.68
2023-03-19T05:17:08.079Z,15.60
2023-03-19T05:19:48.731Z,15.55
2023-03-19T05:22:17.345Z,15.44
2023-03-19T05:24:46.522Z,15.25
2023-03-19T05:27:13.657Z,15.22
2023-03-19T05:29:59.112Z,15.16
2023-03-19T05:32:50.518Z,15.09
2023-03-19T05:35:29.564Z,15.11
2023-03-19T05:37:57.835Z,15.11
2023-03-19T05:40:25.946Z,15.10
2023-03-19T05:42:54.170Z,15.14
2023-03-19T05:45:26.135Z,15.17
2023-03-19T05:47:56.876Z,15.15
2023-03-19T05:50:25.029Z,15.20
2023-03-19T05:53:12.457Z,15.19
2023-03-19T05:55:44.696Z,15.18
2023-03-19T05:58:11.843Z,15.19
2023-03-19T06:00:38.942Z,15.20
2023-03-19T06:03:05.971Z,15.19
2023-03-19T06:05:44.772Z,15.18
2023-03-19T06:08:23.969Z,15.18
2023-03-19T06:11:17.316Z,15.18
2023-03-19T06:13:49.683Z,15.16
2023-03-19T06:16:18.372Z,15.18
2023-03-19T06:18:51.797Z,15.21
2023-03-19T06:21:19.541Z,15.26
2023-03-19T06:23:46.479Z,15.27
2023-03-19T06:26:17.644Z,15.28
2023-03-19T06:28:50.936Z,15.34
2023-03-19T06:31:18.756Z,15.36
2023-03-19T06:34:15.108Z,15.40
2023-03-19T06:36:43.294Z,15.44
2023-03-19T06:39:13.027Z,15.49
2023-03-19T06:41:40.020Z,15.52
2023-03-19T06:44:17.072Z,15.70
2023-03-19T06:46:44.042Z,15.67
2023-03-19T06:49:11.117Z,15.68
2023-03-19T06:51:38.161Z,15.73
2023-03-19T06:54:05.133Z,15.81
2023-03-19T06:56:32.171Z,15.89
2023-03-19T06:58:59.056Z,15.97
2023-03-19T07:01:26.523Z,16.04
2023-03-19T07:03:53.736Z,16.06
2023-03-19T07:06:23.190Z,16.13
2023-03-19T07:08:50.547Z,16.17
2023-03-19T07:11:17.664Z,16.20
2023-03-19T07:13:48.519Z,16.24
2023-03-19T07:16:15.595Z,16.29
2023-03-19T07:18:42.592Z,16.34
2023-03-19T07:21:09.588Z,16.38
2023-03-19T07:23:36.513Z,16.42
2023-03-19T07:26:03.687Z,16.49
2023-03-19T07:28:30.630Z,16.50
2023-03-19T07:30:57.702Z,16.54
2023-03-19T07:33:24.731Z,16.60
2023-03-19T07:35:52.054Z,16.62
2023-03-19T07:38:19.068Z,16.66
2023-03-19T07:41:00.882Z,16.68
2023-03-19T07:43:29.522Z,16.69
2023-03-19T07:45:56.513Z,16.67
2023-03-19T07:48:23.612Z,16.69
2023-03-19T07:50:51.878Z,16.73
2023-03-19T07:53:19.769Z,16.80
2023-03-19T07:55:48.503Z,16.90
2023-03-19T07:58:15.599Z,16.94
2023-03-19T08:00:42.846Z,17.03
2023-03-19T08:03:09.779Z,17.07
2023-03-19T08:05:36.976Z,17.10
2023-03-19T08:08:04.108Z,17.18
2023-03-19T08:10:31.639Z,17.32
2023-03-19T08:12:58.785Z,17.52
2023-03-19T08:15:25.895Z,17.84
2023-03-19T08:18:03.562Z,18.32
2023-03-19T08:20:30.935Z,18.63
2023-03-19T08:22:58.705Z,19.21
2023-03-19T08:25:26.394Z,19.71
2023-03-19T08:27:53.473Z,20.69
2023-03-19T08:30:23.685Z,21.27
2023-03-19T08:32:51.082Z,21.91
2023-03-19T08:35:18.245Z,23.11
2023-03-19T08:37:45.541Z,24.19
2023-03-19T08:40:13.258Z,24.92
2023-03-19T08:42:44.341Z,24.84
2023-03-19T08:45:13.670Z,24.82
2023-03-19T08:47:41.890Z,24.42
2023-03-19T08:50:10.364Z,24.30
2023-03-19T08:52:37.609Z,23.86
2023-03-19T08:55:05.566Z,23.52
2023-03-19T08:57:32.544Z,23.03
2023-03-19T08:59:59.787Z,22.45
2023-03-19T09:02:26.743Z,22.35
2023-03-19T09:04:54.273Z,22.17
2023-03-19T09:07:21.426Z,22.30
2023-03-19T09:09:48.458Z,22.95
2023-03-19T09:12:17.265Z,23.58
2023-03-19T09:14:44.226Z,23.85
2023-03-19T09:17:13.469Z,24.75
2023-03-19T09:19:41.073Z,26.69
2023-03-19T09:22:08.186Z,27.56
2023-03-19T09:24:35.164Z,29.31
2023-03-19T09:27:02.146Z,30.85
2023-03-19T09:29:29.250Z,32.11
2023-03-19T09:31:56.228Z,33.28
2023-03-19T09:34:23.169Z,33.32
2023-03-19T09:36:50.105Z,33.70
2023-03-19T09:39:17.185Z,34.53
2023-03-19T09:42:05.069Z,34.92
2023-03-19T09:44:41.042Z,35.21
2023-03-19T09:47:26.236Z,36.11
2023-03-19T09:49:59.445Z,36.26
2023-03-19T09:52:59.808Z,37.21
2023-03-19T09:55:44.395Z,37.38
2023-03-19T09:58:17.824Z,37.15
2023-03-19T10:00:49.633Z,37.86
2023-03-19T10:03:31.969Z,37.73
2023-03-19T10:06:14.992Z,37.77
2023-03-19T10:08:53.529Z,37.42
2023-03-19T10:11:38.561Z,37.31
2023-03-19T10:14:43.006Z,37.38
2023-03-19T10:17:18.863Z,37.35
2023-03-19T10:19:49.276Z,37.57
2023-03-19T10:22:22.490Z,37.48
2023-03-19T10:24:51.911Z,37.51
2023-03-19T10:27:21.296Z,36.44
2023-03-19T10:29:49.104Z,34.53
2023-03-19T10:32:26.230Z,33.28
2023-03-19T10:34:55.989Z,33.42
2023-03-19T10:37:26.704Z,30.69
2023-03-19T10:39:57.879Z,30.62
2023-03-19T10:42:33.006Z,30.42
2023-03-19T10:45:18.013Z,31.93
2023-03-19T10:47:48.100Z,32.97
2023-03-19T10:50:21.016Z,33.43
2023-03-19T10:52:53.370Z,34.20
2023-03-19T10:55:30.589Z,34.50
2023-03-19T10:58:05.055Z,34.70
2023-03-19T11:00:35.520Z,34.82
2023-03-19T11:03:04.982Z,34.74
2023-03-19T11:05:35.353Z,34.76
2023-03-19T11:08:05.747Z,34.49
2023-03-19T11:10:36.739Z,34.57
2023-03-19T11:13:23.818Z,34.38
2023-03-19T11:15:53.092Z,34.12
2023-03-19T11:18:27.576Z,34.00
2023-03-19T11:21:02.199Z,32.12
2023-03-19T11:23:32.280Z,32.58
2023-03-19T11:26:02.165Z,32.32
2023-03-19T11:28:33.929Z,31.89
2023-03-19T11:31:44.473Z,31.07
2023-03-19T11:34:14.073Z,29.86
2023-03-19T11:37:08.585Z,28.32
2023-03-19T11:39:58.406Z,27.35
2023-03-19T11:42:57.547Z,26.21
2023-03-19T11:45:31.758Z,25.42
2023-03-19T11:48:01.720Z,24.24
2023-03-19T11:50:48.459Z,23.29
2023-03-19T11:53:38.283Z,23.24
2023-03-19T11:56:33.258Z,23.00
2023-03-19T11:59:19.049Z,22.09
2023-03-19T12:02:24.323Z,22.05
2023-03-19T12:04:51.236Z,21.34
2023-03-19T12:07:43.048Z,21.72
2023-03-19T12:10:29.381Z,21.15
2023-03-19T12:13:27.205Z,21.53
2023-03-19T12:16:21.107Z,21.30
2023-03-19T12:18:54.267Z,21.29
2023-03-19T12:21:38.086Z,21.28
2023-03-19T12:24:26.206Z,21.34
2023-03-19T12:27:11.214Z,20.97
2023-03-19T12:29:43.688Z,20.86
2023-03-19T12:32:46.670Z,20.58
2023-03-19T12:35:29.063Z,20.10
2023-03-19T12:38:17.576Z,20.30
2023-03-19T12:40:57.799Z,20.37
2023-03-19T12:43:51.809Z,20.36
2023-03-19T12:46:26.093Z,19.97
2023-03-19T12:49:08.167Z,20.13
2023-03-19T12:51:42.504Z,20.15
2023-03-19T12:54:24.034Z,20.11
2023-03-19T12:57:08.784Z,20.09
2023-03-19T12:59:44.029Z,19.93
2023-03-19T13:02:17.618Z,19.90
2023-03-19T13:04:59.032Z,19.95
2023-03-19T13:07:37.016Z,19.80
2023-03-19T13:10:11.338Z,19.70
2023-03-19T13:12:39.449Z,19.47
2023-03-19T13:15:28.116Z,19.51
2023-03-19T13:18:16.186Z,19.40
2023-03-19T13:21:04.829Z,19.33
2023-03-19T13:23:35.117Z,19.28
2023-03-19T13:26:08.073Z,19.20
2023-03-19T13:28:37.589Z,19.08
2023-03-19T13:31:08.461Z,19.10
2023-03-19T13:33:38.850Z,19.11
2023-03-19T13:36:08.066Z,19.14
2023-03-19T13:38:41.328Z,19.14
2023-03-19T13:41:39.285Z,19.12
2023-03-19T13:44:32.438Z,19.15
2023-03-19T13:47:23.321Z,19.00
2023-03-19T13:50:19.757Z,19.01
2023-03-19T13:53:21.152Z,18.95
2023-03-19T13:55:58.293Z,18.85
2023-03-19T13:58:47.702Z,18.76
2023-03-19T14:01:27.047Z,18.71
2023-03-19T14:04:05.382Z,18.62
2023-03-19T14:06:41.155Z,18.61
2023-03-19T14:09:30.746Z,18.58
2023-03-19T14:12:18.337Z,18.56
2023-03-19T14:14:54.220Z,18.70
2023-03-19T14:17:42.135Z,18.67
2023-03-19T14:20:13.228Z,18.51
2023-03-19T14:22:56.702Z,18.51
2023-03-19T14:25:29.291Z,18.47
2023-03-19T14:28:01.184Z,18.48
2023-03-19T14:30:39.073Z,18.36
2023-03-19T14:33:15.686Z,18.26
2023-03-19T14:35:49.207Z,18.28
2023-03-19T14:38:41.974Z,18.22
2023-03-19T14:41:17.193Z,18.19
2023-03-19T14:44:23.080Z,18.17
2023-03-19T14:47:02.087Z,18.27
2023-03-19T14:50:11.226Z,17.73
2023-03-19T14:52:58.490Z,17.89
2023-03-19T14:55:38.105Z,17.99
2023-03-19T14:58:05.754Z,17.88
2023-03-19T15:00:46.635Z,18.05
2023-03-19T15:03:42.648Z,18.08
2023-03-19T15:06:13.544Z,18.12
2023-03-19T15:08:42.322Z,17.90
2023-03-19T15:11:16.201Z,18.04
2023-03-19T15:14:04.962Z,18.05
2023-03-19T15:16:50.538Z,18.17
2023-03-19T15:19:26.328Z,17.78
2023-03-19T15:22:09.222Z,17.75
2023-03-19T15:24:36.578Z,17.84
2023-03-19T15:27:24.238Z,17.96
2023-03-19T15:29:53.455Z,17.93
2023-03-19T15:33:09.143Z,17.37
2023-03-19T15:35:36.123Z,17.23
2023-03-19T15:38:09.010Z,17.29
2023-03-19T15:40:37.430Z,16.96
2023-03-19T15:43:05.199Z,17.10
2023-03-19T15:45:35.773Z,17.20
2023-03-19T15:48:21.730Z,17.16
2023-03-19T15:50:53.293Z,17.33
2023-03-19T15:53:24.662Z,17.49
2023-03-19T15:55:54.900Z,17.58
2023-03-19T15:58:25.940Z,17.66
2023-03-19T16:00:54.652Z,17.61
2023-03-19T16:03:28.110Z,17.59
2023-03-19T16:06:07.444Z,17.65
2023-03-19T16:08:34.583Z,17.42
2023-03-19T16:11:30.190Z,17.41
2023-03-19T16:14:10.212Z,17.04
2023-03-19T16:16:40.466Z,17.05
2023-03-19T16:19:29.363Z,17.05
2023-03-19T16:21:57.341Z,16.94
2023-03-19T16:24:37.678Z,17.17
2023-03-19T16:27:08.074Z,17.09
2023-03-19T16:29:44.687Z,17.04
2023-03-19T16:32:11.579Z,16.95
2023-03-19T16:34:47.198Z,16.95
2023-03-19T16:37:38.452Z,16.99
2023-03-19T16:40:17.314Z,16.99
2023-03-19T16:42:44.292Z,17.04
2023-03-19T16:45:17.349Z,17.09
2023-03-19T16:48:03.696Z,16.90
2023-03-19T16:50:37.534Z,16.98
2023-03-19T16:53:13.286Z,16.99
2023-03-19T16:55:40.591Z,16.95
2023-03-19T16:58:15.651Z,17.17
2023-03-19T17:00:43.868Z,17.26
2023-03-19T17:03:14.005Z,17.31
2023-03-19T17:05:42.764Z,17.33
2023-03-19T17:08:09.755Z,17.39
2023-03-19T17:10:40.179Z,17.47
2023-03-19T17:13:07.735Z,17.12
2023-03-19T17:15:34.911Z,17.07
2023-03-19T17:18:33.667Z,17.15
2023-03-19T17:21:09.291Z,17.08
2023-03-19T17:23:38.345Z,17.04
2023-03-19T17:26:14.735Z,16.86
2023-03-19T17:28:41.929Z,16.86
2023-03-19T17:31:29.212Z,16.74
2023-03-19T17:34:04.442Z,16.81
2023-03-19T17:36:32.003Z,16.82
2023-03-19T17:38:58.961Z,16.74
2023-03-19T17:41:26.096Z,16.76
2023-03-19T17:43:53.093Z,16.82
2023-03-19T17:46:25.631Z,16.62
2023-03-19T17:48:54.328Z,16.44
2023-03-19T17:51:24.003Z,16.33
2023-03-19T17:53:54.322Z,16.39
2023-03-19T17:56:27.495Z,16.34
2023-03-19T17:58:57.555Z,16.26
2023-03-19T18:01:28.530Z,16.29
2023-03-19T18:03:57.696Z,16.19
2023-03-19T18:06:26.647Z,16.17
2023-03-19T18:08:53.785Z,16.19
2023-03-19T18:11:20.847Z,16.05
2023-03-19T18:13:47.895Z,15.98
2023-03-19T18:16:18.649Z,16.08
2023-03-19T18:18:46.089Z,16.02
2023-03-19T18:21:16.233Z,16.06
2023-03-19T18:23:44.308Z,16.01
2023-03-19T18:26:16.990Z,15.92
2023-03-19T18:28:44.764Z,16.01
2023-03-19T18:31:25.952Z,16.05
2023-03-19T18:34:06.612Z,16.06
2023-03-19T18:36:34.670Z,15.97
2023-03-19T18:39:01.788Z,16.02
2023-03-19T18:41:32.419Z,16.03
2023-03-19T18:44:07.198Z,16.03
2023-03-19T18:46:35.807Z,15.93
2023-03-19T18:49:25.592Z,15.88
2023-03-19T18:52:07.095Z,15.90
2023-03-19T18:54:34.104Z,15.94
2023-03-19T18:57:02.248Z,15.99
2023-03-19T18:59:32.884Z,16.02
2023-03-19T19:02:13.401Z,16.02
2023-03-19T19:04:48.652Z,16.04
2023-03-19T19:07:17.468Z,15.91
2023-03-19T19:09:44.411Z,15.96
2023-03-19T19:12:14.946Z,15.94
2023-03-19T19:14:43.287Z,15.89
2023-03-19T19:17:29.278Z,15.97
2023-03-19T19:19:56.581Z,16.04
2023-03-19T19:22:23.527Z,16.10
2023-03-19T19:24:50.505Z,16.08
2023-03-19T19:27:20.404Z,16.03
2023-03-19T19:29:47.888Z,16.05
2023-03-19T19:32:24.815Z,16.06
2023-03-19T19:34:52.560Z,16.03
2023-03-19T19:37:23.492Z,16.05
2023-03-19T19:39:51.765Z,16.04
2023-03-19T19:42:21.253Z,16.05
2023-03-19T19:44:53.481Z,16.10
2023-03-19T19:47:20.504Z,16.04
2023-03-19T19:49:47.453Z,16.01
2023-03-19T19:52:17.380Z,16.02
2023-03-19T19:54:45.776Z,16.07
2023-03-19T19:57:24.881Z,16.02
2023-03-19T19:59:53.873Z,16.00
2023-03-19T20:02:21.898Z,16.04
2023-03-19T20:04:49.188Z,16.08
2023-03-19T20:07:16.125Z,16.16
2023-03-19T20:09:43.250Z,16.06
2023-03-19T20:12:32.116Z,15.98
2023-03-19T20:14:59.648Z,15.97
2023-03-19T20:17:27.465Z,15.88
2023-03-19T20:19:54.689Z,15.80
2023-03-19T20:22:21.953Z,15.81
2023-03-19T20:24:51.267Z,15.86
2023-03-19T20:27:26.484Z,15.92
2023-03-19T20:29:54.249Z,15.96
2023-03-19T20:32:28.452Z,16.02
2023-03-19T20:34:55.531Z,16.04
2023-03-19T20:37:22.715Z,16.16
2023-03-19T20:39:49.746Z,16.24
2023-03-19T20:42:16.696Z,16.33
2023-03-19T20:44:45.061Z,16.33
2023-03-19T20:47:26.353Z,16.41
2023-03-19T20:49:53.994Z,16.44
2023-03-19T20:52:21.528Z,16.49
2023-03-19T20:54:49.215Z,16.55
2023-03-19T20:57:29.312Z,16.56
2023-03-19T21:00:02.531Z,16.57
2023-03-19T21:02:29.824Z,16.61
2023-03-19T21:04:56.979Z,16.64
2023-03-19T21:07:34.736Z,16.67
2023-03-19T21:10:30.847Z,16.71
2023-03-19T21:12:59.517Z,16.73
2023-03-19T21:15:26.696Z,16.77
2023-03-19T21:17:57.424Z,16.80
2023-03-19T21:20:32.823Z,16.78
2023-03-19T21:23:14.807Z,16.80
2023-03-19T21:25:43.997Z,16.82
2023-03-19T21:28:27.032Z,16.79
2023-03-19T21:30:54.484Z,16.69
2023-03-19T21:33:26.676Z,16.72
2023-03-19T21:35:57.883Z,16.73
2023-03-19T21:38:25.274Z,16.70
2023-03-19T21:40:58.706Z,16.73
2023-03-19T21:43:33.626Z,16.73
2023-03-19T21:46:13.857Z,16.68
2023-03-19T21:48:44.790Z,16.68
2023-03-19T21:51:15.136Z,16.69
2023-03-19T21:53:43.234Z,16.67
2023-03-19T21:56:21.572Z,16.66
2023-03-19T21:58:51.462Z,16.66
2023-03-19T22:01:24.592Z,16.68
2023-03-19T22:03:53.583Z,16.68
2023-03-19T22:06:22.243Z,16.68
2023-03-19T22:08:57.328Z,16.67
2023-03-19T22:11:31.067Z,16.65
2023-03-19T22:14:27.022Z,16.53
2023-03-19T22:16:55.951Z,16.51
2023-03-19T22:19:23.209Z,16.49
2023-03-19T22:21:53.988Z,16.45
2023-03-19T22:24:21.147Z,16.41
2023-03-19T22:26:52.670Z,16.42
2023-03-19T22:29:25.711Z,16.40
2023-03-19T22:31:55.525Z,16.35
2023-03-19T22:34:26.379Z,16.35
2023-03-19T22:36:53.749Z,16.32
2023-03-19T22:39:22.036Z,16.31
2023-03-19T22:41:49.500Z,16.31
2023-03-19T22:44:32.338Z,16.30
2023-03-19T22:47:01.911Z,16.27
2023-03-19T22:49:30.189Z,16.25
2023-03-19T22:51:58.126Z,16.23
2023-03-19T22:54:25.684Z,16.18
2023-03-19T22:56:52.533Z,16.14
2023-03-19T22:59:20.512Z,16.12
2023-03-19T23:01:48.161Z,16.09
2023-03-19T23:04:20.424Z,16.07
2023-03-19T23:06:51.277Z,16.04
2023-03-19T23:09:37.733Z,16.02
2023-03-19T23:12:06.300Z,15.95
2023-03-19T23:14:33.324Z,15.93
2023-03-19T23:17:06.952Z,15.93
2023-03-19T23:19:38.917Z,15.90
2023-03-19T23:22:07.673Z,15.88
2023-03-19T23:24:35.135Z,15.87
2023-03-19T23:27:03.243Z,15.86
2023-03-19T23:29:32.595Z,15.83
2023-03-19T23:31:59.715Z,15.80
2023-03-19T23:34:28.675Z,15.78
2023-03-19T23:37:00.200Z,15.76
2023-03-19T23:39:27.220Z,15.73
2023-03-19T23:41:58.085Z,15.71
2023-03-19T23:44:27.291Z,15.68
2023-03-19T23:46:55.557Z,15.67
2023-03-19T23:49:29.922Z,15.64
2023-03-19T23:51:57.611Z,15.59
2023-03-19T23:54:24.554Z,15.57
2023-03-19T23:56:54.193Z,15.59
2023-03-19T23:59:21.447Z,15.57
